sensor_id;sensor_type;location;lat;lon;timestamp;temperature;humidity
4631;DHT22;2328;48.170;11.602;2024-03-02T04:24:37;5.10;99.90
4631;DHT22;2328;48.170;11.602;2024-03-02T04:27:46;5.10;99.90
4631;DHT22;2328;48.170;11.602;2024-03-02T04:30:48;5.10;99.90
4631;DHT22;2328;48.170;11.602;2024-03-02T04:33:51;5.20;99.90
4631;DHT22;2328;48.170;11.602;2024-03-02T04:37:03;5.30;99.90
4631;DHT22;2328;48.170;11.602;2024-03-02T05:04:20;5.50;99.90
4631;DHT22;2328;48.170;11.602;2024-03-02T05:07:20;5.40;99.90
4631;DHT22;2328;48.170;11.602;2024-03-02T05:10:20;5.50;99.90
4631;DHT22;2328;48.170;11.602;2024-03-02T05:13:17;5.60;99.90
4631;DHT22;2328;48.170;11.602;2024-03-02T05:16:16;5.60;99.90
4631;DHT22;2328;48.170;11.602;2024-03-02T05:19:20;5.50;99.90
4631;DHT22;2328;48.170;11.602;2024-03-02T05:22:05;5.40;99.90
4631;DHT22;2328;48.170;11.602;2024-03-02T05:25:06;5.50;99.90
4631;DHT22;2328;48.170;11.602;2024-03-02T05:28:07;5.40;99.90
4631;DHT22;2328;48.170;11.602;2024-03-02T05:31:16;5.40;99.90
4631;DHT22;2328;48.170;11.602;2024-03-02T05:34:01;5.50;99.90
4631;DHT22;2328;48.170;11.602;2024-03-02T08:42:31;12.30;99.90
4631;DHT22;2328;48.170;11.602;2024-03-02T08:45:21;12.40;99.90
4631;DHT22;2328;48.170;11.602;2024-03-02T08:48:17;11.70;99.90
4631;DHT22;2328;48.170;11.602;2024-03-02T08:50:49;11.20;99.90
4631;DHT22;2328;48.170;11.602;2024-03-02T08:53:20;10.80;99.90
4631;DHT22;2328;48.170;11.602;2024-03-02T08:56:00;10.20;99.90
4631;DHT22;2328;48.170;11.602;2024-03-02T09:07:58;9.40;99.90
4631;DHT22;2328;48.170;11.602;2024-03-02T09:10:33;9.20;99.90
4631;DHT22;2328;48.170;11.602;2024-03-02T09:13:06;9.20;99.90
4631;DHT22;2328;48.170;11.602;2024-03-02T09:15:45;9.30;99.90
4631;DHT22;2328;48.170;11.602;2024-03-02T09:18:34;9.30;99.90
4631;DHT22;2328;48.170;11.602;2024-03-02T09:21:36;9.60;99.90
4631;DHT22;2328;48.170;11.602;2024-03-02T09:24:35;9.60;99.90
4631;DHT22;2328;48.170;11.602;2024-03-02T09:27:16;9.50;99.90
4631;DHT22;2328;48.170;11.602;2024-03-02T09:38:45;10.20;99.90
4631;DHT22;2328;48.170;11.602;2024-03-02T09:41:44;10.30;99.90
4631;DHT22;2328;48.170;11.602;2024-03-02T09:44:29;10.30;99.90
4631;DHT22;2328;48.170;11.602;2024-03-02T09:47:20;10.20;99.90
4631;DHT22;2328;48.170;11.602;2024-03-02T09:53:45;10.00;99.90
4631;DHT22;2328;48.170;11.602;2024-03-02T10:06:47;10.30;99.90
4631;DHT22;2328;48.170;11.602;2024-03-02T10:09:30;10.40;99.90
4631;DHT22;2328;48.170;11.602;2024-03-02T10:15:23;10.40;99.90
4631;DHT22;2328;48.170;11.602;2024-03-02T10:18:04;10.50;99.90
4631;DHT22;2328;48.170;11.602;2024-03-02T10:20:49;10.60;99.90
4631;DHT22;2328;48.170;11.602;2024-03-02T10:34:00;11.00;99.90
4631;DHT22;2328;48.170;11.602;2024-03-02T10:36:45;11.10;99.90
4631;DHT22;2328;48.170;11.602;2024-03-02T10:39:47;11.20;99.90
4631;DHT22;2328;48.170;11.602;2024-03-02T10:42:27;11.10;99.90
4631;DHT22;2328;48.170;11.602;2024-03-02T10:45:10;11.10;99.90
4631;DHT22;2328;48.170;11.602;2024-03-02T10:47:59;11.20;99.90
4631;DHT22;2328;48.170;11.602;2024-03-02T10:50:59;11.20;99.90
4631;DHT22;2328;48.170;11.602;2024-03-02T10:53:34;11.20;99.90
4631;DHT22;2328;48.170;11.602;2024-03-02T10:56:18;11.10;99.90
4631;DHT22;2328;48.170;11.602;2024-03-02T10:59:02;11.20;99.90
4631;DHT22;2328;48.170;11.602;2024-03-02T11:02:03;11.30;99.90
4631;DHT22;2328;48.170;11.602;2024-03-02T11:05:06;11.30;99.90
4631;DHT22;2328;48.170;11.602;2024-03-02T11:15:22;11.40;99.90
4631;DHT22;2328;48.170;11.602;2024-03-02T11:26:20;11.50;99.90
4631;DHT22;2328;48.170;11.602;2024-03-02T11:28:52;11.50;99.90
4631;DHT22;2328;48.170;11.602;2024-03-02T11:35:41;11.60;99.90
4631;DHT22;2328;48.170;11.602;2024-03-02T11:38:54;11.90;99.90
4631;DHT22;2328;48.170;11.602;2024-03-02T11:41:59;11.90;99.90
4631;DHT22;2328;48.170;11.602;2024-03-02T11:45:14;11.90;99.90
4631;DHT22;2328;48.170;11.602;2024-03-02T11:47:53;11.80;99.90
4631;DHT22;2328;48.170;11.602;2024-03-02T12:04:10;11.70;99.90
4631;DHT22;2328;48.170;11.602;2024-03-02T12:07:06;11.90;99.90
4631;DHT22;2328;48.170;11.602;2024-03-02T12:10:15;11.90;99.90
4631;DHT22;2328;48.170;11.602;2024-03-02T12:12:43;11.90;99.90
4631;DHT22;2328;48.170;11.602;2024-03-02T12:15:12;12.20;99.90
4631;DHT22;2328;48.170;11.602;2024-03-02T12:17:40;12.50;99.90
4631;DHT22;2328;48.170;11.602;2024-03-02T12:20:12;12.80;99.90
4631;DHT22;2328;48.170;11.602;2024-03-02T12:32:20;12.60;99.90
4631;DHT22;2328;48.170;11.602;2024-03-02T12:34:50;12.70;99.90
4631;DHT22;2328;48.170;11.602;2024-03-02T12:37:21;12.90;99.90
4631;DHT22;2328;48.170;11.602;2024-03-02T12:39:49;12.30;99.90
4631;DHT22;2328;48.170;11.602;2024-03-02T12:42:17;12.30;99.90
4631;DHT22;2328;48.170;11.602;2024-03-02T12:44:46;12.40;99.90
4631;DHT22;2328;48.170;11.602;2024-03-02T12:47:14;12.30;99.90
4631;DHT22;2328;48.170;11.602;2024-03-02T12:49:43;12.10;99.90
4631;DHT22;2328;48.170;11.602;2024-03-02T12:52:12;12.00;99.90
4631;DHT22;2328;48.170;11.602;2024-03-02T12:54:42;11.90;99.90
4631;DHT22;2328;48.170;11.602;2024-03-02T12:57:17;12.00;99.90
4631;DHT22;2328;48.170;11.602;2024-03-02T12:59:45;12.20;99.90
4631;DHT22;2328;48.170;11.602;2024-03-02T13:02:17;12.20;99.90
4631;DHT22;2328;48.170;11.602;2024-03-02T13:04:52;12.10;99.90
4631;DHT22;2328;48.170;11.602;2024-03-02T13:07:21;12.20;99.90
4631;DHT22;2328;48.170;11.602;2024-03-02T13:09:59;12.50;99.90
4631;DHT22;2328;48.170;11.602;2024-03-02T13:12:32;12.20;99.90
4631;DHT22;2328;48.170;11.602;2024-03-02T13:15:01;12.20;99.90
4631;DHT22;2328;48.170;11.602;2024-03-02T13:17:31;11.90;99.90
4631;DHT22;2328;48.170;11.602;2024-03-02T13:20:08;12.00;99.90
4631;DHT22;2328;48.170;11.602;2024-03-02T13:22:38;12.10;99.90
4631;DHT22;2328;48.170;11.602;2024-03-02T13:25:08;12.00;99.90
4631;DHT22;2328;48.170;11.602;2024-03-02T13:27:48;11.60;99.90
4631;DHT22;2328;48.170;11.602;2024-03-02T13:30:18;11.70;99.90
4631;DHT22;2328;48.170;11.602;2024-03-02T13:32:47;11.70;99.90
4631;DHT22;2328;48.170;11.602;2024-03-02T13:35:21;11.70;99.90
4631;DHT22;2328;48.170;11.602;2024-03-02T13:49:32;11.80;99.90
4631;DHT22;2328;48.170;11.602;2024-03-02T14:09:08;12.00;99.90
4631;DHT22;2328;48.170;11.602;2024-03-02T14:15:00;11.70;99.90
4631;DHT22;2328;48.170;11.602;2024-03-02T14:17:30;11.80;99.90
4631;DHT22;2328;48.170;11.602;2024-03-02T14:20:14;11.90;99.90
4631;DHT22;2328;48.170;11.602;2024-03-02T14:39:47;12.30;99.90
4631;DHT22;2328;48.170;11.602;2024-03-02T14:43:01;12.30;99.90
4631;DHT22;2328;48.170;11.602;2024-03-02T14:46:23;12.20;99.90
4631;DHT22;2328;48.170;11.602;2024-03-02T15:00:28;11.70;99.90
4631;DHT22;2328;48.170;11.602;2024-03-02T15:02:57;11.60;99.90
4631;DHT22;2328;48.170;11.602;2024-03-02T21:49:45;4.40;99.90
4631;DHT22;2328;48.170;11.602;2024-03-02T21:52:19;4.40;99.90
4631;DHT22;2328;48.170;11.602;2024-03-02T21:54:51;4.40;99.90
4631;DHT22;2328;48.170;11.602;2024-03-02T21:57:23;4.30;99.90
4631;DHT22;2328;48.170;11.602;2024-03-02T21:59:53;4.40;99.90
4631;DHT22;2328;48.170;11.602;2024-03-02T22:02:24;4.40;99.90
4631;DHT22;2328;48.170;11.602;2024-03-02T22:05:23;4.40;99.90
4631;DHT22;2328;48.170;11.602;2024-03-02T22:07:55;4.20;99.90
4631;DHT22;2328;48.170;11.602;2024-03-02T22:10:38;4.20;99.90
4631;DHT22;2328;48.170;11.602;2024-03-02T22:13:22;4.10;99.90
4631;DHT22;2328;48.170;11.602;2024-03-02T22:16:19;4.20;99.90
4631;DHT22;2328;48.170;11.602;2024-03-02T22:19:04;4.10;99.90
4631;DHT22;2328;48.170;11.602;2024-03-02T22:22:06;4.10;99.90
4631;DHT22;2328;48.170;11.602;2024-03-02T22:24:40;4.10;99.90
4631;DHT22;2328;48.170;11.602;2024-03-02T22:27:22;4.10;99.90
4631;DHT22;2328;48.170;11.602;2024-03-02T22:30:19;4.20;99.90
4631;DHT22;2328;48.170;11.602;2024-03-02T22:32:49;4.10;99.90
4631;DHT22;2328;48.170;11.602;2024-03-02T22:35:19;3.90;99.90
4631;DHT22;2328;48.170;11.602;2024-03-02T22:38:04;3.90;99.90
4631;DHT22;2328;48.170;11.602;2024-03-02T22:40:33;3.80;99.90
4631;DHT22;2328;48.170;11.602;2024-03-02T22:43:15;3.70;99.90
4631;DHT22;2328;48.170;11.602;2024-03-02T22:45:45;3.70;99.90
4631;DHT22;2328;48.170;11.602;2024-03-02T22:48:19;3.90;99.90
4631;DHT22;2328;48.170;11.602;2024-03-02T22:50:51;4.00;99.90
4631;DHT22;2328;48.170;11.602;2024-03-02T22:53:21;4.00;99.90
4631;DHT22;2328;48.170;11.602;2024-03-02T22:55:54;3.90;99.90
4631;DHT22;2328;48.170;11.602;2024-03-02T22:58:24;3.80;99.90
4631;DHT22;2328;48.170;11.602;2024-03-02T23:00:56;3.80;99.90
4631;DHT22;2328;48.170;11.602;2024-03-02T23:03:28;3.80;99.90
4631;DHT22;2328;48.170;11.602;2024-03-02T23:05:57;3.70;99.90
4631;DHT22;2328;48.170;11.602;2024-03-02T23:08:28;3.60;99.90
